createdAt,value
2022-12-25T00:02:15.085Z,99386.19
2022-12-25T00:04:41.982Z,99385.66
2022-12-25T00:07:09.235Z,99389.19
2022-12-25T00:09:36.071Z,99395.28
2022-12-25T00:12:02.973Z,99392.78
2022-12-25T00:14:30.049Z,99387.47
2022-12-25T00:16:56.870Z,99376.19
2022-12-25T00:19:23.668Z,99378.28
2022-12-25T00:21:52.849Z,99388.16
2022-12-25T00:24:19.616Z,99374.22
2022-12-25T00:26:46.442Z,99386.88
2022-12-25T00:29:13.241Z,99387.31
2022-12-25T00:31:40.156Z,99392.75
2022-12-25T00:34:06.909Z,99386.31
2022-12-25T00:36:41.141Z,99393.88
2022-12-25T00:39:08.788Z,99399.75
2022-12-25T00:41:36.026Z,99397.13
2022-12-25T00:44:03.116Z,99393.84
2022-12-25T00:46:30.062Z,99401.59
2022-12-25T00:48:57.120Z,99411.94
2022-12-25T00:51:24.054Z,99423.13
2022-12-25T00:53:50.861Z,99420.88
2022-12-25T00:56:17.680Z,99420.19
2022-12-25T00:58:44.527Z,99414.50
2022-12-25T01:01:11.412Z,99414.50
2022-12-25T01:03:38.237Z,99417.25
2022-12-25T01:06:05.041Z,99421.78
2022-12-25T01:08:31.965Z,99420.69
2022-12-25T01:10:58.909Z,99425.81
2022-12-25T01:13:26.807Z,99416.81
2022-12-25T01:15:53.678Z,99413.78
2022-12-25T01:18:20.485Z,99404.94
2022-12-25T01:20:47.314Z,99411.44
2022-12-25T01:23:14.691Z,99416.34
2022-12-25T01:25:41.522Z,99428.03
2022-12-25T01:28:08.396Z,99427.94
2022-12-25T01:30:35.191Z,99420.97
2022-12-25T01:33:02.387Z,99421.91
2022-12-25T01:35:29.305Z,99409.66
2022-12-25T01:37:56.080Z,99415.81
2022-12-25T01:40:22.885Z,99410.91
2022-12-25T01:42:49.738Z,99421.78
2022-12-25T01:45:16.669Z,99422.78
2022-12-25T01:47:43.552Z,99417.88
2022-12-25T01:50:10.304Z,99419.34
2022-12-25T01:52:37.163Z,99419.97
2022-12-25T01:55:04.059Z,99430.88
2022-12-25T01:57:30.913Z,99428.19
2022-12-25T01:59:57.762Z,99425.31
2022-12-25T02:02:24.755Z,99431.03
2022-12-25T02:04:52.337Z,99435.63
2022-12-25T02:07:19.241Z,99433.91
2022-12-25T02:09:46.372Z,99435.28
2022-12-25T02:12:13.211Z,99441.03
2022-12-25T02:14:40.325Z,99444.19
2022-12-25T02:17:07.295Z,99439.09
2022-12-25T02:19:34.398Z,99435.31
2022-12-25T02:22:01.366Z,99430.50
2022-12-25T02:24:28.406Z,99426.72
2022-12-25T02:26:55.633Z,99430.53
2022-12-25T02:29:22.751Z,99437.47
2022-12-25T02:31:50.060Z,99441.84
2022-12-25T02:34:16.888Z,99437.66
2022-12-25T02:36:43.977Z,99439.56
2022-12-25T02:39:12.463Z,99431.59
2022-12-25T02:41:39.305Z,99441.84
2022-12-25T02:44:06.255Z,99451.56
2022-12-25T02:46:33.441Z,99449.09
2022-12-25T02:49:01.132Z,99441.84
2022-12-25T02:51:28.250Z,99447.31
2022-12-25T02:53:55.565Z,99440.50
2022-12-25T02:56:23.672Z,99440.66
2022-12-25T02:58:50.454Z,99441.19
2022-12-25T03:01:17.524Z,99445.34
2022-12-25T03:03:44.512Z,99448.81
2022-12-25T03:06:11.595Z,99438.06
2022-12-25T03:08:38.329Z,99447.94
2022-12-25T03:11:05.298Z,99455.50
2022-12-25T03:13:33.912Z,99441.66
2022-12-25T03:16:00.684Z,99440.19
2022-12-25T03:18:27.574Z,99444.53
2022-12-25T03:20:54.429Z,99452.75
2022-12-25T03:23:21.354Z,99451.50
2022-12-25T03:25:48.395Z,99462.19
2022-12-25T03:28:15.279Z,99468.84
2022-12-25T03:30:42.178Z,99465.00
2022-12-25T03:33:36.633Z,99456.47
2022-12-25T03:35:55.921Z,99451.19
2022-12-25T03:38:22.762Z,99456.47
2022-12-25T03:40:49.785Z,99450.66
2022-12-25T03:43:16.818Z,99450.94
2022-12-25T03:45:43.674Z,99450.53
2022-12-25T03:48:11.875Z,99454.06
2022-12-25T03:50:38.678Z,99455.94
2022-12-25T03:53:05.464Z,99453.31
2022-12-25T03:55:32.558Z,99455.44
2022-12-25T03:57:59.423Z,99460.25
2022-12-25T04:00:26.205Z,99455.16
2022-12-25T04:02:53.674Z,99451.22
2022-12-25T04:05:20.545Z,99450.25
2022-12-25T04:07:47.394Z,99451.94
2022-12-25T04:10:14.225Z,99452.81
2022-12-25T04:12:41.126Z,99443.13
2022-12-25T04:15:08.186Z,99449.47
2022-12-25T04:17:35.327Z,99449.34
2022-12-25T04:20:02.132Z,99451.66
2022-12-25T04:22:28.961Z,99461.41
2022-12-25T04:24:55.921Z,99464.22
2022-12-25T04:27:22.630Z,99457.06
2022-12-25T04:29:49.523Z,99456.56
2022-12-25T04:32:18.874Z,99465.13
2022-12-25T04:34:45.657Z,99456.38
2022-12-25T04:37:12.423Z,99449.31
2022-12-25T04:39:39.234Z,99450.53
2022-12-25T04:42:06.429Z,99454.16
2022-12-25T04:44:33.173Z,99458.25
2022-12-25T04:47:02.540Z,99458.16
2022-12-25T04:49:33.020Z,99458.78
2022-12-25T04:51:59.792Z,99467.94
2022-12-25T04:54:26.637Z,99461.72
2022-12-25T04:56:53.511Z,99466.31
2022-12-25T04:59:20.340Z,99465.69
2022-12-25T05:01:47.191Z,99471.03
2022-12-25T05:04:14.114Z,99466.75
2022-12-25T05:06:41.364Z,99459.78
2022-12-25T05:09:08.333Z,99458.09
2022-12-25T05:11:35.182Z,99464.50
2022-12-25T05:14:02.144Z,99461.94
2022-12-25T05:16:29.150Z,99454.81
2022-12-25T05:18:56.296Z,99457.31
2022-12-25T05:21:23.187Z,99445.84
2022-12-25T05:23:49.974Z,99449.84
2022-12-25T05:26:17.533Z,99453.47
2022-12-25T05:28:44.602Z,99458.59
2022-12-25T05:31:11.572Z,99457.47
2022-12-25T05:33:38.390Z,99458.78
2022-12-25T05:36:05.323Z,99449.25
2022-12-25T05:38:32.456Z,99451.56
2022-12-25T05:40:59.295Z,99447.34
2022-12-25T05:43:26.201Z,99446.53
2022-12-25T05:45:53.292Z,99450.91
2022-12-25T05:48:20.095Z,99453.53
2022-12-25T05:50:46.894Z,99457.97
2022-12-25T05:53:14.094Z,99454.63
2022-12-25T05:55:40.950Z,99466.03
2022-12-25T05:58:07.931Z,99468.16
2022-12-25T06:00:34.801Z,99461.41
2022-12-25T06:03:01.721Z,99468.16
2022-12-25T06:05:28.673Z,99466.03
2022-12-25T06:07:55.828Z,99470.72
2022-12-25T06:10:22.782Z,99474.13
2022-12-25T06:12:49.845Z,99478.41
2022-12-25T06:15:16.864Z,99483.03
2022-12-25T06:17:43.763Z,99482.88
2022-12-25T06:20:10.628Z,99490.13
2022-12-25T06:22:37.454Z,99491.91
2022-12-25T06:25:04.527Z,99497.03
2022-12-25T06:27:31.431Z,99502.00
2022-12-25T06:29:58.253Z,99506.56
2022-12-25T06:32:25.120Z,99503.22
2022-12-25T06:34:52.000Z,99493.56
2022-12-25T06:37:18.904Z,99492.00
2022-12-25T06:39:45.698Z,99490.22
2022-12-25T06:42:12.541Z,99493.84
2022-12-25T06:44:40.362Z,99493.13
2022-12-25T06:47:07.547Z,99509.34
2022-12-25T06:49:34.329Z,99510.84
2022-12-25T06:52:01.358Z,99512.41
2022-12-25T06:54:28.596Z,99514.31
2022-12-25T06:56:58.348Z,99511.28
2022-12-25T06:59:25.192Z,99525.91
2022-12-25T07:01:52.292Z,99534.50
2022-12-25T07:04:19.370Z,99525.47
2022-12-25T07:06:46.222Z,99534.56
2022-12-25T07:09:13.020Z,99535.72
2022-12-25T07:11:39.819Z,99542.75
2022-12-25T07:14:06.650Z,99551.59
2022-12-25T07:16:33.483Z,99549.75
2022-12-25T07:19:00.345Z,99554.44
2022-12-25T07:21:27.211Z,99549.16
2022-12-25T07:23:54.046Z,99554.56
2022-12-25T07:26:20.863Z,99559.97
2022-12-25T07:28:47.634Z,99561.97
2022-12-25T07:31:14.666Z,99565.09
2022-12-25T07:33:42.811Z,99581.25
2022-12-25T07:36:12.571Z,99583.44
2022-12-25T07:38:39.961Z,99579.81
2022-12-25T07:41:06.739Z,99568.16
2022-12-25T07:43:33.558Z,99568.03
2022-12-25T07:46:00.460Z,99568.16
2022-12-25T07:48:27.670Z,99553.84
2022-12-25T07:50:54.529Z,99561.75
2022-12-25T07:53:21.429Z,99565.53
2022-12-25T07:55:48.259Z,99560.91
2022-12-25T07:58:19.944Z,99569.72
2022-12-25T08:00:50.255Z,99574.97
2022-12-25T08:03:17.315Z,99563.19
2022-12-25T08:05:44.450Z,99565.81
2022-12-25T08:08:11.773Z,99564.03
2022-12-25T08:10:38.642Z,99566.41
2022-12-25T08:13:10.827Z,99569.44
2022-12-25T08:15:41.031Z,99577.28
2022-12-25T08:18:08.298Z,99572.25
2022-12-25T08:20:35.335Z,99568.19
2022-12-25T08:23:03.148Z,99563.22
2022-12-25T08:25:30.124Z,99568.13
2022-12-25T08:27:57.300Z,99560.56
2022-12-25T08:30:24.295Z,99565.47
2022-12-25T08:32:51.273Z,99564.31
2022-12-25T08:35:18.415Z,99558.22
2022-12-25T08:37:45.287Z,99554.44
2022-12-25T08:40:12.161Z,99560.00
2022-12-25T08:42:39.665Z,99561.84
2022-12-25T08:45:07.038Z,99568.16
2022-12-25T08:47:33.791Z,99571.78
2022-12-25T08:50:00.656Z,99565.81
2022-12-25T08:52:27.975Z,99566.72
2022-12-25T08:54:54.968Z,99566.88
2022-12-25T08:57:22.274Z,99571.59
2022-12-25T08:59:49.127Z,99569.88
2022-12-25T09:02:16.137Z,99574.97
2022-12-25T09:04:43.212Z,99568.56
2022-12-25T09:07:10.089Z,99571.94
2022-12-25T09:09:37.077Z,99572.66
2022-12-25T09:12:03.899Z,99570.38
2022-12-25T09:14:30.690Z,99576.19
2022-12-25T09:16:57.511Z,99574.44
2022-12-25T09:19:24.452Z,99571.41
2022-12-25T09:21:51.205Z,99569.13
2022-12-25T09:24:18.442Z,99571.31
2022-12-25T09:26:45.523Z,99576.09
2022-12-25T09:29:12.341Z,99574.28
2022-12-25T09:31:39.205Z,99574.03
2022-12-25T09:34:06.175Z,99575.97
2022-12-25T09:36:33.054Z,99576.19
2022-12-25T09:38:59.925Z,99579.94
2022-12-25T09:41:26.701Z,99583.38
2022-12-25T09:43:54.005Z,99582.03
2022-12-25T09:46:21.068Z,99583.59
2022-12-25T09:48:48.014Z,99581.84
2022-12-25T09:51:14.807Z,99582.63
2022-12-25T09:53:41.668Z,99579.44
2022-12-25T09:56:08.435Z,99574.16
2022-12-25T09:58:35.316Z,99575.31
2022-12-25T10:01:02.223Z,99576.88
2022-12-25T10:03:29.106Z,99577.31
2022-12-25T10:05:56.292Z,99579.13
2022-12-25T10:08:23.367Z,99575.88
2022-12-25T10:10:50.162Z,99585.22
2022-12-25T10:13:16.973Z,99583.78
2022-12-25T10:15:45.873Z,99574.47
2022-12-25T10:18:13.216Z,99565.94
2022-12-25T10:20:40.076Z,99565.22
2022-12-25T10:23:06.946Z,99561.44
2022-12-25T10:25:33.831Z,99555.84
2022-12-25T10:28:01.117Z,99550.44
2022-12-25T10:30:27.917Z,99546.78
2022-12-25T10:32:54.897Z,99554.47
2022-12-25T10:35:21.781Z,99551.38
2022-12-25T10:37:48.545Z,99542.69
2022-12-25T10:40:15.563Z,99544.84
2022-12-25T10:42:42.559Z,99547.25
2022-12-25T10:45:09.426Z,99544.09
2022-12-25T10:47:36.246Z,99539.94
2022-12-25T10:50:03.178Z,99538.38
2022-12-25T10:52:29.987Z,99538.97
2022-12-25T10:54:56.809Z,99539.59
2022-12-25T10:57:23.740Z,99530.28
2022-12-25T10:59:50.514Z,99530.22
2022-12-25T11:02:17.875Z,99522.94
2022-12-25T11:04:44.748Z,99516.41
2022-12-25T11:07:11.527Z,99517.19
2022-12-25T11:09:38.868Z,99517.03
2022-12-25T11:12:06.229Z,99512.47
2022-12-25T11:14:33.016Z,99505.72
2022-12-25T11:17:00.026Z,99506.72
2022-12-25T11:19:27.786Z,99504.03
2022-12-25T11:21:54.587Z,99512.56
2022-12-25T11:24:23.354Z,99508.06
2022-12-25T11:26:50.611Z,99513.25
2022-12-25T11:29:17.399Z,99500.00
2022-12-25T11:31:44.372Z,99494.75
2022-12-25T11:34:11.218Z,99484.19
2022-12-25T11:36:38.121Z,99484.03
2022-12-25T11:39:04.858Z,99480.78
2022-12-25T11:41:31.640Z,99493.34
2022-12-25T11:43:59.212Z,99475.38
2022-12-25T11:46:26.924Z,99488.38
2022-12-25T11:48:53.712Z,99476.09
2022-12-25T11:51:20.567Z,99471.88
2022-12-25T11:53:47.434Z,99470.72
2022-12-25T11:56:14.537Z,99463.59
2022-12-25T11:58:41.651Z,99464.28
2022-12-25T12:01:08.613Z,99463.31
2022-12-25T12:03:36.572Z,99459.66
2022-12-25T12:06:03.429Z,99457.97
2022-12-25T12:08:30.396Z,99447.50
2022-12-25T12:10:57.270Z,99452.38
2022-12-25T12:13:24.202Z,99447.72
2022-12-25T12:15:51.801Z,99439.81
2022-12-25T12:18:18.645Z,99435.72
2022-12-25T12:20:45.482Z,99429.53
2022-12-25T12:23:12.393Z,99432.63
2022-12-25T12:25:39.166Z,99436.88
2022-12-25T12:28:06.099Z,99421.91
2022-12-25T12:30:32.966Z,99424.25
2022-12-25T12:32:59.951Z,99418.81
2022-12-25T12:35:26.797Z,99419.28
2022-12-25T12:37:53.895Z,99418.13
2022-12-25T12:40:20.760Z,99421.59
2022-12-25T12:42:47.617Z,99415.72
2022-12-25T12:45:14.436Z,99412.44
2022-12-25T12:47:41.335Z,99421.41
2022-12-25T12:50:08.564Z,99421.41
2022-12-25T12:52:35.370Z,99425.47
2022-12-25T12:55:02.434Z,99420.84
2022-12-25T12:57:29.240Z,99423.91
2022-12-25T12:59:56.145Z,99413.53
2022-12-25T13:02:23.052Z,99416.56
2022-12-25T13:04:49.970Z,99405.81
2022-12-25T13:07:17.365Z,99396.47
2022-12-25T13:09:44.160Z,99403.59
2022-12-25T13:12:11.153Z,99396.16
2022-12-25T13:14:38.109Z,99390.88
2022-12-25T13:17:04.978Z,99385.94
2022-12-25T13:19:31.835Z,99373.84
2022-12-25T13:21:59.484Z,99368.75
2022-12-25T13:24:26.310Z,99360.59
2022-12-25T13:26:55.200Z,99367.31
2022-12-25T13:29:22.181Z,99369.78
2022-12-25T13:31:49.164Z,99365.34
2022-12-25T13:34:16.296Z,99360.34
2022-12-25T13:36:43.308Z,99366.13
2022-12-25T13:39:10.255Z,99366.69
2022-12-25T13:41:37.005Z,99373.53
2022-12-25T13:44:03.903Z,99363.72
2022-12-25T13:46:30.792Z,99362.84
2022-12-25T13:48:58.160Z,99363.38
2022-12-25T13:51:26.904Z,99365.41
2022-12-25T13:53:53.711Z,99366.56
2022-12-25T13:56:20.549Z,99363.16
2022-12-25T13:58:47.298Z,99360.31
2022-12-25T14:01:14.207Z,99368.41
2022-12-25T14:03:41.099Z,99371.31
2022-12-25T14:06:08.089Z,99365.19
2022-12-25T14:08:34.886Z,99375.97
2022-12-25T14:11:01.732Z,99385.03
2022-12-25T14:13:28.595Z,99389.53
2022-12-25T14:15:55.401Z,99394.63
2022-12-25T14:18:22.190Z,99387.06
2022-12-25T14:20:49.018Z,99385.41
2022-12-25T14:23:15.876Z,99383.63
2022-12-25T14:25:42.671Z,99383.66
2022-12-25T14:28:09.431Z,99390.13
2022-12-25T14:30:36.370Z,99387.91
2022-12-25T14:33:03.256Z,99388.22
2022-12-25T14:35:31.340Z,99386.75
2022-12-25T14:37:58.133Z,99386.38
2022-12-25T14:40:25.017Z,99383.13
2022-12-25T14:42:51.917Z,99388.00
2022-12-25T14:45:18.694Z,99382.22
2022-12-25T14:47:45.436Z,99385.94
2022-12-25T14:50:12.214Z,99375.84
2022-12-25T14:52:39.031Z,99376.34
2022-12-25T14:55:05.826Z,99387.59
2022-12-25T14:57:33.019Z,99387.75
2022-12-25T14:59:59.888Z,99394.16
2022-12-25T15:02:26.950Z,99387.63
2022-12-25T15:04:53.825Z,99389.25
2022-12-25T15:07:20.746Z,99369.53
2022-12-25T15:09:49.136Z,99376.50
2022-12-25T15:12:15.998Z,99374.66
2022-12-25T15:14:42.935Z,99381.31
2022-12-25T15:17:09.844Z,99376.94
2022-12-25T15:19:38.177Z,99371.84
2022-12-25T15:22:09.160Z,99366.41
2022-12-25T15:24:36.037Z,99366.09
2022-12-25T15:27:02.868Z,99359.78
2022-12-25T15:30:07.948Z,99369.97
2022-12-25T15:32:16.466Z,99357.03
2022-12-25T15:34:43.335Z,99342.09
2022-12-25T15:37:10.158Z,99344.56
2022-12-25T15:39:36.974Z,99341.00
2022-12-25T15:42:03.911Z,99336.69
2022-12-25T15:44:30.773Z,99336.22
2022-12-25T15:46:57.711Z,99339.41
2022-12-25T15:49:24.580Z,99335.97
2022-12-25T15:51:51.898Z,99325.91
2022-12-25T15:54:18.664Z,99317.63
2022-12-25T15:56:45.908Z,99313.75
2022-12-25T15:59:14.366Z,99314.75
2022-12-25T16:01:41.421Z,99329.72
2022-12-25T16:04:08.585Z,99331.78
2022-12-25T16:06:35.606Z,99339.53
2022-12-25T16:09:02.415Z,99345.81
2022-12-25T16:11:29.605Z,99340.53
2022-12-25T16:13:56.652Z,99345.66
2022-12-25T16:16:23.549Z,99343.25
2022-12-25T16:18:50.661Z,99342.47
2022-12-25T16:21:17.506Z,99339.22
2022-12-25T16:23:44.435Z,99344.41
2022-12-25T16:26:11.402Z,99341.78
2022-12-25T16:28:38.344Z,99331.19
2022-12-25T16:31:05.183Z,99330.47
2022-12-25T16:33:32.017Z,99316.38
2022-12-25T16:35:58.827Z,99316.22
2022-12-25T16:38:25.711Z,99291.13
2022-12-25T16:40:52.689Z,99287.72
2022-12-25T16:43:23.964Z,99285.50
2022-12-25T16:45:51.301Z,99281.69
2022-12-25T16:48:18.431Z,99283.31
2022-12-25T16:50:45.783Z,99285.25
2022-12-25T16:53:12.701Z,99282.63
2022-12-25T16:55:39.536Z,99284.50
2022-12-25T16:58:07.342Z,99276.66
2022-12-25T17:00:34.245Z,99283.09
2022-12-25T17:03:02.005Z,99287.56
2022-12-25T17:05:29.302Z,99291.13
2022-12-25T17:07:56.120Z,99289.75
2022-12-25T17:10:23.223Z,99288.06
2022-12-25T17:12:50.180Z,99281.25
2022-12-25T17:15:17.046Z,99273.66
2022-12-25T17:17:46.475Z,99277.22
2022-12-25T17:20:16.354Z,99268.63
2022-12-25T17:22:43.236Z,99266.69
2022-12-25T17:25:10.103Z,99265.91
2022-12-25T17:27:36.937Z,99272.41
2022-12-25T17:30:03.755Z,99266.47
2022-12-25T17:32:30.576Z,99262.59
2022-12-25T17:34:57.642Z,99266.66
2022-12-25T17:37:24.823Z,99258.19
2022-12-25T17:39:52.104Z,99255.78
2022-12-25T17:42:18.906Z,99257.03
2022-12-25T17:44:45.741Z,99250.16
2022-12-25T17:47:12.639Z,99255.13
2022-12-25T17:49:40.533Z,99251.72
2022-12-25T17:52:08.050Z,99254.19
2022-12-25T17:54:34.873Z,99251.63
2022-12-25T17:57:01.813Z,99252.94
2022-12-25T17:59:29.113Z,99243.97
2022-12-25T18:01:56.232Z,99246.75
2022-12-25T18:04:23.153Z,99264.38
2022-12-25T18:06:50.070Z,99258.19
2022-12-25T18:09:16.961Z,99230.13
2022-12-25T18:11:43.996Z,99210.94
2022-12-25T18:14:12.974Z,99213.13
2022-12-25T18:16:40.320Z,99215.00
2022-12-25T18:19:07.140Z,99201.78
2022-12-25T18:21:34.199Z,99197.28
2022-12-25T18:24:01.018Z,99207.03
2022-12-25T18:26:28.078Z,99209.72
2022-12-25T18:28:55.095Z,99203.41
2022-12-25T18:31:21.932Z,99200.63
2022-12-25T18:33:49.477Z,99197.22
2022-12-25T18:36:16.390Z,99197.44
2022-12-25T18:38:44.614Z,99196.25
2022-12-25T18:41:11.480Z,99201.81
2022-12-25T18:43:53.807Z,99210.88
2022-12-25T18:46:22.121Z,99200.38
2022-12-25T18:48:49.127Z,99188.81
2022-12-25T18:51:15.987Z,99184.16
2022-12-25T18:53:42.761Z,99189.66
2022-12-25T18:56:09.573Z,99190.78
2022-12-25T18:58:36.362Z,99178.38
2022-12-25T19:01:03.597Z,99182.84
2022-12-25T19:03:30.460Z,99184.47
2022-12-25T19:05:57.349Z,99183.50
2022-12-25T19:08:24.179Z,99174.75
2022-12-25T19:10:51.004Z,99177.94
2022-12-25T19:13:18.110Z,99181.63
2022-12-25T19:15:44.976Z,99179.00
2022-12-25T19:18:12.059Z,99182.22
2022-12-25T19:20:39.096Z,99166.97
2022-12-25T19:23:06.184Z,99159.88
2022-12-25T19:25:32.971Z,99161.22
2022-12-25T19:27:59.905Z,99152.22
2022-12-25T19:30:26.915Z,99155.75
2022-12-25T19:32:54.018Z,99155.84
2022-12-25T19:35:22.873Z,99151.72
2022-12-25T19:37:50.738Z,99142.44
2022-12-25T19:40:17.846Z,99134.75
2022-12-25T19:42:45.731Z,99144.91
2022-12-25T19:45:13.644Z,99159.31
2022-12-25T19:47:40.558Z,99150.16
2022-12-25T19:50:07.399Z,99147.69
2022-12-25T19:52:34.203Z,99145.13
2022-12-25T19:55:02.164Z,99138.19
2022-12-25T19:57:28.963Z,99138.19
2022-12-25T19:59:56.024Z,99128.91
2022-12-25T20:02:22.931Z,99140.91
2022-12-25T20:04:50.178Z,99144.97
2022-12-25T20:07:17.057Z,99137.44
2022-12-25T20:09:43.989Z,99144.38
2022-12-25T20:12:10.781Z,99137.56
2022-12-25T20:14:37.561Z,99140.41
2022-12-25T20:17:04.438Z,99139.97
2022-12-25T20:19:31.407Z,99147.31
2022-12-25T20:21:58.303Z,99142.69
2022-12-25T20:24:26.556Z,99140.69
2022-12-25T20:26:58.805Z,99135.03
2022-12-25T20:29:26.268Z,99141.84
2022-12-25T20:31:53.225Z,99145.00
2022-12-25T20:34:20.062Z,99156.75
2022-12-25T20:36:47.153Z,99150.59
2022-12-25T20:39:14.349Z,99161.31
2022-12-25T20:41:43.322Z,99160.50
2022-12-25T20:44:10.501Z,99156.16
2022-12-25T20:46:37.522Z,99163.13
2022-12-25T20:49:04.491Z,99156.44
2022-12-25T20:51:31.381Z,99150.75
2022-12-25T20:53:58.251Z,99158.28
2022-12-25T20:56:25.194Z,99159.13
2022-12-25T20:58:52.110Z,99160.97
2022-12-25T21:01:19.119Z,99168.22
2022-12-25T21:03:46.617Z,99169.06
2022-12-25T21:06:13.483Z,99171.69
2022-12-25T21:08:40.426Z,99179.09
2022-12-25T21:11:07.293Z,99177.88
2022-12-25T21:13:36.553Z,99180.38
2022-12-25T21:16:03.541Z,99176.28
2022-12-25T21:18:30.564Z,99171.25
2022-12-25T21:20:58.351Z,99173.19
2022-12-25T21:23:25.495Z,99161.84
2022-12-25T21:25:52.401Z,99162.84
2022-12-25T21:28:19.326Z,99152.34
2022-12-25T21:30:46.334Z,99152.13
2022-12-25T21:33:16.854Z,99154.59
2022-12-25T21:35:44.351Z,99157.06
2022-12-25T21:38:11.254Z,99158.56
2022-12-25T21:40:38.426Z,99147.03
2022-12-25T21:43:07.403Z,99137.34
2022-12-25T21:45:34.659Z,99140.81
2022-12-25T21:48:03.327Z,99145.66
2022-12-25T21:50:34.662Z,99147.94
2022-12-25T21:53:04.397Z,99156.63
2022-12-25T21:55:31.277Z,99154.78
2022-12-25T21:57:58.328Z,99152.75
2022-12-25T22:00:25.591Z,99156.88
2022-12-25T22:02:52.436Z,99162.59
2022-12-25T22:05:20.507Z,99154.97
2022-12-25T22:07:47.312Z,99161.91
2022-12-25T22:10:14.275Z,99171.31
2022-12-25T22:12:41.381Z,99161.72
2022-12-25T22:15:08.234Z,99163.09
2022-12-25T22:17:35.083Z,99165.78
2022-12-25T22:20:02.008Z,99150.44
2022-12-25T22:22:31.391Z,99162.25
2022-12-25T22:24:58.234Z,99137.28
2022-12-25T22:27:25.245Z,99151.50
2022-12-25T22:29:52.597Z,99145.59
2022-12-25T22:32:19.538Z,99156.66
2022-12-25T22:34:46.420Z,99142.25
2022-12-25T22:37:13.544Z,99147.44
2022-12-25T22:39:40.367Z,99148.94
2022-12-25T22:42:07.187Z,99142.59
2022-12-25T22:44:34.063Z,99133.41
2022-12-25T22:47:00.885Z,99134.97
2022-12-25T22:49:27.671Z,99146.59
2022-12-25T22:51:54.508Z,99150.28
2022-12-25T22:54:21.467Z,99156.31
2022-12-25T22:56:48.396Z,99152.16
2022-12-25T22:59:15.205Z,99158.56
2022-12-25T23:01:42.141Z,99153.03
2022-12-25T23:04:11.158Z,99146.94
2022-12-25T23:06:38.052Z,99148.75
2022-12-25T23:09:04.861Z,99152.97
2022-12-25T23:11:31.739Z,99151.72
2022-12-25T23:13:58.541Z,99152.28
2022-12-25T23:16:25.532Z,99146.09
2022-12-25T23:18:52.423Z,99158.56
2022-12-25T23:21:19.201Z,99156.16
2022-12-25T23:23:46.042Z,99155.44
2022-12-25T23:26:12.909Z,99154.59
2022-12-25T23:28:39.682Z,99155.94
2022-12-25T23:31:06.594Z,99161.13
2022-12-25T23:33:33.660Z,99153.47
2022-12-25T23:36:00.562Z,99152.78
2022-12-25T23:38:27.454Z,99155.88
2022-12-25T23:40:54.377Z,99160.53
2022-12-25T23:43:21.203Z,99160.28
2022-12-25T23:45:48.052Z,99169.06
2022-12-25T23:48:15.012Z,99166.19
2022-12-25T23:50:41.922Z,99175.78
2022-12-25T23:53:08.742Z,99181.34
2022-12-25T23:55:35.550Z,99183.31
2022-12-25T23:58:03.593Z,99183.91
